sensor_id;sensor_type;location;lat;lon;timestamp;P1;durP1;ratioP1;P2;durP2;ratioP2
6185;SDS011;3126;52.738;8.316;2023-01-28T00:02:19;7.70;;;6.90;;
6185;SDS011;3126;52.738;8.316;2023-01-28T00:07:20;9.00;;;7.00;;
6185;SDS011;3126;52.738;8.316;2023-01-28T00:12:21;8.15;;;6.50;;
6185;SDS011;3126;52.738;8.316;2023-01-28T00:17:23;8.00;;;6.90;;
6185;SDS011;3126;52.738;8.316;2023-01-28T00:22:24;9.73;;;6.22;;
6185;SDS011;3126;52.738;8.316;2023-01-28T00:27:25;6.90;;;5.53;;
6185;SDS011;3126;52.738;8.316;2023-01-28T00:32:26;7.75;;;5.85;;
6185;SDS011;3126;52.738;8.316;2023-01-28T00:37:27;6.20;;;5.55;;
6185;SDS011;3126;52.738;8.316;2023-01-28T00:42:28;6.43;;;5.63;;
6185;SDS011;3126;52.738;8.316;2023-01-28T00:47:29;12.07;;;6.22;;
6185;SDS011;3126;52.738;8.316;2023-01-28T00:52:30;6.57;;;5.85;;
6185;SDS011;3126;52.738;8.316;2023-01-28T00:57:31;8.75;;;5.88;;
6185;SDS011;3126;52.738;8.316;2023-01-28T01:02:33;6.20;;;5.60;;
6185;SDS011;3126;52.738;8.316;2023-01-28T01:07:33;8.45;;;6.85;;
6185;SDS011;3126;52.738;8.316;2023-01-28T01:12:40;8.75;;;6.10;;
6185;SDS011;3126;52.738;8.316;2023-01-28T01:17:42;7.07;;;6.38;;
6185;SDS011;3126;52.738;8.316;2023-01-28T01:22:44;9.05;;;6.88;;
6185;SDS011;3126;52.738;8.316;2023-01-28T01:27:47;6.90;;;6.25;;
6185;SDS011;3126;52.738;8.316;2023-01-28T01:32:48;7.55;;;5.68;;
6185;SDS011;3126;52.738;8.316;2023-01-28T01:37:49;6.50;;;5.90;;
6185;SDS011;3126;52.738;8.316;2023-01-28T01:42:50;5.85;;;5.25;;
6185;SDS011;3126;52.738;8.316;2023-01-28T01:52:57;5.78;;;5.20;;
6185;SDS011;3126;52.738;8.316;2023-01-28T01:58:01;6.65;;;5.90;;
6185;SDS011;3126;52.738;8.316;2023-01-28T02:03:03;7.88;;;5.18;;
6185;SDS011;3126;52.738;8.316;2023-01-28T02:08:04;6.85;;;5.78;;
6185;SDS011;3126;52.738;8.316;2023-01-28T02:13:21;5.40;;;4.90;;
6185;SDS011;3126;52.738;8.316;2023-01-28T02:18:24;5.85;;;4.65;;
6185;SDS011;3126;52.738;8.316;2023-01-28T02:23:47;5.03;;;4.43;;
6185;SDS011;3126;52.738;8.316;2023-01-28T02:33:55;5.43;;;4.47;;
6185;SDS011;3126;52.738;8.316;2023-01-28T02:39:01;5.90;;;4.80;;
6185;SDS011;3126;52.738;8.316;2023-01-28T02:44:03;7.20;;;4.90;;
6185;SDS011;3126;52.738;8.316;2023-01-28T02:49:05;5.10;;;4.60;;
6185;SDS011;3126;52.738;8.316;2023-01-28T02:54:13;6.47;;;4.90;;
6185;SDS011;3126;52.738;8.316;2023-01-28T03:04:46;7.85;;;5.28;;
6185;SDS011;3126;52.738;8.316;2023-01-28T03:09:47;9.00;;;4.90;;
6185;SDS011;3126;52.738;8.316;2023-01-28T03:14:51;5.68;;;4.97;;
6185;SDS011;3126;52.738;8.316;2023-01-28T03:20:13;6.50;;;5.10;;
6185;SDS011;3126;52.738;8.316;2023-01-28T03:25:33;4.85;;;4.22;;
6185;SDS011;3126;52.738;8.316;2023-01-28T03:30:56;6.53;;;4.93;;
6185;SDS011;3126;52.738;8.316;2023-01-28T03:36:16;5.68;;;4.50;;
6185;SDS011;3126;52.738;8.316;2023-01-28T03:41:36;6.57;;;4.78;;
6185;SDS011;3126;52.738;8.316;2023-01-28T03:46:37;5.53;;;5.00;;
6185;SDS011;3126;52.738;8.316;2023-01-28T03:51:39;5.07;;;4.60;;
6185;SDS011;3126;52.738;8.316;2023-01-28T03:56:40;5.00;;;4.50;;
6185;SDS011;3126;52.738;8.316;2023-01-28T04:01:41;5.43;;;4.90;;
6185;SDS011;3126;52.738;8.316;2023-01-28T04:06:42;6.22;;;5.30;;
6185;SDS011;3126;52.738;8.316;2023-01-28T04:11:43;5.68;;;4.78;;
6185;SDS011;3126;52.738;8.316;2023-01-28T04:16:44;5.43;;;4.80;;
6185;SDS011;3126;52.738;8.316;2023-01-28T04:21:45;7.10;;;4.97;;
6185;SDS011;3126;52.738;8.316;2023-01-28T04:26:46;7.00;;;5.45;;
6185;SDS011;3126;52.738;8.316;2023-01-28T04:31:47;6.10;;;5.50;;
6185;SDS011;3126;52.738;8.316;2023-01-28T04:36:48;6.10;;;4.72;;
6185;SDS011;3126;52.738;8.316;2023-01-28T04:41:49;7.00;;;5.13;;
6185;SDS011;3126;52.738;8.316;2023-01-28T04:46:50;6.78;;;6.07;;
6185;SDS011;3126;52.738;8.316;2023-01-28T04:51:51;6.70;;;5.90;;
6185;SDS011;3126;52.738;8.316;2023-01-28T04:56:52;5.93;;;5.30;;
6185;SDS011;3126;52.738;8.316;2023-01-28T05:01:53;7.47;;;6.07;;
6185;SDS011;3126;52.738;8.316;2023-01-28T05:06:54;6.47;;;5.88;;
6185;SDS011;3126;52.738;8.316;2023-01-28T05:11:55;12.68;;;9.20;;
6185;SDS011;3126;52.738;8.316;2023-01-28T05:16:56;10.65;;;8.70;;
6185;SDS011;3126;52.738;8.316;2023-01-28T05:21:57;13.77;;;9.32;;
6185;SDS011;3126;52.738;8.316;2023-01-28T05:26:58;19.67;;;10.82;;
6185;SDS011;3126;52.738;8.316;2023-01-28T05:31:59;15.52;;;9.77;;
6185;SDS011;3126;52.738;8.316;2023-01-28T05:37:00;14.20;;;10.52;;
6185;SDS011;3126;52.738;8.316;2023-01-28T05:42:01;14.35;;;10.40;;
6185;SDS011;3126;52.738;8.316;2023-01-28T05:47:02;18.17;;;11.43;;
6185;SDS011;3126;52.738;8.316;2023-01-28T05:52:03;20.30;;;11.93;;
6185;SDS011;3126;52.738;8.316;2023-01-28T05:57:04;22.38;;;12.43;;
6185;SDS011;3126;52.738;8.316;2023-01-28T06:02:05;18.85;;;11.73;;
6185;SDS011;3126;52.738;8.316;2023-01-28T06:07:06;20.75;;;12.13;;
6185;SDS011;3126;52.738;8.316;2023-01-28T06:12:07;19.73;;;11.85;;
6185;SDS011;3126;52.738;8.316;2023-01-28T06:17:08;22.38;;;12.85;;
6185;SDS011;3126;52.738;8.316;2023-01-28T06:22:09;23.38;;;14.15;;
6185;SDS011;3126;52.738;8.316;2023-01-28T06:27:10;26.35;;;15.48;;
6185;SDS011;3126;52.738;8.316;2023-01-28T06:32:11;29.95;;;16.60;;
6185;SDS011;3126;52.738;8.316;2023-01-28T06:37:12;33.45;;;16.77;;
6185;SDS011;3126;52.738;8.316;2023-01-28T06:42:14;35.72;;;16.85;;
6185;SDS011;3126;52.738;8.316;2023-01-28T06:47:15;29.80;;;15.82;;
6185;SDS011;3126;52.738;8.316;2023-01-28T06:52:16;33.30;;;16.35;;
6185;SDS011;3126;52.738;8.316;2023-01-28T06:57:17;36.40;;;17.90;;
6185;SDS011;3126;52.738;8.316;2023-01-28T07:02:18;32.75;;;17.58;;
6185;SDS011;3126;52.738;8.316;2023-01-28T07:07:19;34.33;;;18.98;;
6185;SDS011;3126;52.738;8.316;2023-01-28T07:12:20;36.17;;;18.35;;
6185;SDS011;3126;52.738;8.316;2023-01-28T07:17:21;32.15;;;18.38;;
6185;SDS011;3126;52.738;8.316;2023-01-28T07:22:22;36.10;;;18.05;;
6185;SDS011;3126;52.738;8.316;2023-01-28T07:27:23;36.10;;;18.45;;
6185;SDS011;3126;52.738;8.316;2023-01-28T07:32:24;35.88;;;18.65;;
6185;SDS011;3126;52.738;8.316;2023-01-28T07:37:27;34.83;;;18.63;;
6185;SDS011;3126;52.738;8.316;2023-01-28T07:42:29;35.53;;;17.58;;
6185;SDS011;3126;52.738;8.316;2023-01-28T07:47:30;37.20;;;18.63;;
6185;SDS011;3126;52.738;8.316;2023-01-28T07:52:31;35.53;;;17.27;;
6185;SDS011;3126;52.738;8.316;2023-01-28T07:57:37;34.83;;;16.38;;
6185;SDS011;3126;52.738;8.316;2023-01-28T08:02:47;36.53;;;18.00;;
6185;SDS011;3126;52.738;8.316;2023-01-28T08:07:48;37.47;;;17.40;;
6185;SDS011;3126;52.738;8.316;2023-01-28T08:12:56;36.88;;;18.33;;
6185;SDS011;3126;52.738;8.316;2023-01-28T08:18:00;32.15;;;16.58;;
6185;SDS011;3126;52.738;8.316;2023-01-28T08:23:08;34.65;;;18.55;;
6185;SDS011;3126;52.738;8.316;2023-01-28T08:28:12;37.95;;;19.77;;
6185;SDS011;3126;52.738;8.316;2023-01-28T08:33:13;36.55;;;18.88;;
6185;SDS011;3126;52.738;8.316;2023-01-28T08:38:15;34.33;;;17.67;;
6185;SDS011;3126;52.738;8.316;2023-01-28T08:43:16;29.13;;;15.85;;
6185;SDS011;3126;52.738;8.316;2023-01-28T08:48:18;27.05;;;14.25;;
6185;SDS011;3126;52.738;8.316;2023-01-28T08:53:19;28.70;;;14.52;;
6185;SDS011;3126;52.738;8.316;2023-01-28T08:58:20;27.08;;;14.80;;
6185;SDS011;3126;52.738;8.316;2023-01-28T09:03:21;23.17;;;12.95;;
6185;SDS011;3126;52.738;8.316;2023-01-28T09:08:22;22.70;;;12.75;;
6185;SDS011;3126;52.738;8.316;2023-01-28T09:13:23;21.23;;;13.43;;
6185;SDS011;3126;52.738;8.316;2023-01-28T09:18:24;21.45;;;12.25;;
6185;SDS011;3126;52.738;8.316;2023-01-28T09:23:25;22.02;;;11.80;;
6185;SDS011;3126;52.738;8.316;2023-01-28T09:28:26;20.15;;;12.23;;
6185;SDS011;3126;52.738;8.316;2023-01-28T09:33:29;20.23;;;11.45;;
6185;SDS011;3126;52.738;8.316;2023-01-28T09:38:30;21.92;;;12.05;;
6185;SDS011;3126;52.738;8.316;2023-01-28T09:43:39;20.70;;;11.95;;
6185;SDS011;3126;52.738;8.316;2023-01-28T09:48:43;22.10;;;13.30;;
6185;SDS011;3126;52.738;8.316;2023-01-28T09:53:47;20.15;;;11.05;;
6185;SDS011;3126;52.738;8.316;2023-01-28T09:58:49;23.02;;;13.05;;
6185;SDS011;3126;52.738;8.316;2023-01-28T10:19:13;19.05;;;10.98;;
6185;SDS011;3126;52.738;8.316;2023-01-28T10:24:17;19.25;;;11.02;;
6185;SDS011;3126;52.738;8.316;2023-01-28T10:29:22;19.48;;;10.20;;
6185;SDS011;3126;52.738;8.316;2023-01-28T10:34:24;16.88;;;10.55;;
6185;SDS011;3126;52.738;8.316;2023-01-28T10:39:25;17.02;;;10.73;;
6185;SDS011;3126;52.738;8.316;2023-01-28T10:44:30;16.35;;;10.35;;
6185;SDS011;3126;52.738;8.316;2023-01-28T10:49:32;17.90;;;11.07;;
6185;SDS011;3126;52.738;8.316;2023-01-28T10:54:39;16.95;;;9.93;;
6185;SDS011;3126;52.738;8.316;2023-01-28T10:59:40;18.15;;;10.60;;
6185;SDS011;3126;52.738;8.316;2023-01-28T11:04:41;16.67;;;10.20;;
6185;SDS011;3126;52.738;8.316;2023-01-28T11:09:49;18.65;;;9.88;;
6185;SDS011;3126;52.738;8.316;2023-01-28T11:19:55;16.70;;;9.95;;
6185;SDS011;3126;52.738;8.316;2023-01-28T11:24:59;15.20;;;9.40;;
6185;SDS011;3126;52.738;8.316;2023-01-28T11:30:00;13.25;;;9.15;;
6185;SDS011;3126;52.738;8.316;2023-01-28T11:35:04;14.55;;;9.27;;
6185;SDS011;3126;52.738;8.316;2023-01-28T11:40:15;13.43;;;9.07;;
6185;SDS011;3126;52.738;8.316;2023-01-28T11:45:21;18.38;;;10.73;;
6185;SDS011;3126;52.738;8.316;2023-01-28T11:50:38;14.32;;;10.35;;
6185;SDS011;3126;52.738;8.316;2023-01-28T12:06:08;13.80;;;8.60;;
6185;SDS011;3126;52.738;8.316;2023-01-28T12:16:56;16.63;;;9.38;;
6185;SDS011;3126;52.738;8.316;2023-01-28T12:37:37;11.77;;;8.57;;
6185;SDS011;3126;52.738;8.316;2023-01-28T12:42:41;11.82;;;7.32;;
6185;SDS011;3126;52.738;8.316;2023-01-28T12:47:49;13.35;;;8.07;;
6185;SDS011;3126;52.738;8.316;2023-01-28T12:52:54;16.70;;;8.02;;
6185;SDS011;3126;52.738;8.316;2023-01-28T12:57:57;13.63;;;8.25;;
6185;SDS011;3126;52.738;8.316;2023-01-28T13:08:09;17.63;;;8.70;;
6185;SDS011;3126;52.738;8.316;2023-01-28T13:13:19;11.25;;;7.80;;
6185;SDS011;3126;52.738;8.316;2023-01-28T13:18:33;16.00;;;8.82;;
6185;SDS011;3126;52.738;8.316;2023-01-28T13:28:38;10.02;;;6.72;;
6185;SDS011;3126;52.738;8.316;2023-01-28T13:33:40;12.20;;;7.45;;
6185;SDS011;3126;52.738;8.316;2023-01-28T13:38:41;12.18;;;6.90;;
6185;SDS011;3126;52.738;8.316;2023-01-28T13:43:42;11.25;;;6.75;;
6185;SDS011;3126;52.738;8.316;2023-01-28T13:48:44;12.23;;;8.65;;
6185;SDS011;3126;52.738;8.316;2023-01-28T13:53:47;12.20;;;8.43;;
6185;SDS011;3126;52.738;8.316;2023-01-28T13:59:08;14.60;;;8.75;;
6185;SDS011;3126;52.738;8.316;2023-01-28T14:04:22;13.20;;;8.40;;
6185;SDS011;3126;52.738;8.316;2023-01-28T14:09:40;8.75;;;5.43;;
6185;SDS011;3126;52.738;8.316;2023-01-28T14:19:47;13.15;;;8.30;;
6185;SDS011;3126;52.738;8.316;2023-01-28T14:24:49;14.52;;;8.52;;
6185;SDS011;3126;52.738;8.316;2023-01-28T14:34:54;10.93;;;7.20;;
6185;SDS011;3126;52.738;8.316;2023-01-28T14:39:57;13.57;;;7.93;;
6185;SDS011;3126;52.738;8.316;2023-01-28T14:45:03;11.82;;;7.47;;
6185;SDS011;3126;52.738;8.316;2023-01-28T14:50:25;10.25;;;6.68;;
6185;SDS011;3126;52.738;8.316;2023-01-28T14:55:29;12.13;;;6.95;;
6185;SDS011;3126;52.738;8.316;2023-01-28T15:00:32;9.68;;;6.75;;
6185;SDS011;3126;52.738;8.316;2023-01-28T15:05:34;11.82;;;7.68;;
6185;SDS011;3126;52.738;8.316;2023-01-28T15:10:35;11.57;;;7.57;;
6185;SDS011;3126;52.738;8.316;2023-01-28T15:15:40;10.75;;;7.07;;
6185;SDS011;3126;52.738;8.316;2023-01-28T15:20:44;11.98;;;7.07;;
6185;SDS011;3126;52.738;8.316;2023-01-28T15:25:46;12.68;;;7.10;;
6185;SDS011;3126;52.738;8.316;2023-01-28T15:30:47;12.00;;;8.23;;
6185;SDS011;3126;52.738;8.316;2023-01-28T15:35:49;11.23;;;7.68;;
6185;SDS011;3126;52.738;8.316;2023-01-28T15:40:57;14.07;;;7.78;;
6185;SDS011;3126;52.738;8.316;2023-01-28T15:45:58;13.25;;;8.77;;
6185;SDS011;3126;52.738;8.316;2023-01-28T15:51:04;14.93;;;9.07;;
6185;SDS011;3126;52.738;8.316;2023-01-28T15:56:07;12.57;;;8.40;;
6185;SDS011;3126;52.738;8.316;2023-01-28T16:11:11;15.70;;;9.18;;
6185;SDS011;3126;52.738;8.316;2023-01-28T16:16:12;25.17;;;13.43;;
6185;SDS011;3126;52.738;8.316;2023-01-28T16:21:18;18.50;;;11.20;;
6185;SDS011;3126;52.738;8.316;2023-01-28T16:26:21;17.75;;;9.48;;
6185;SDS011;3126;52.738;8.316;2023-01-28T16:31:22;20.67;;;10.75;;
6185;SDS011;3126;52.738;8.316;2023-01-28T16:36:23;16.55;;;11.18;;
6185;SDS011;3126;52.738;8.316;2023-01-28T16:41:25;17.27;;;10.90;;
6185;SDS011;3126;52.738;8.316;2023-01-28T16:46:27;18.10;;;9.93;;
6185;SDS011;3126;52.738;8.316;2023-01-28T16:51:28;20.75;;;10.88;;
6185;SDS011;3126;52.738;8.316;2023-01-28T16:56:29;17.90;;;10.82;;
6185;SDS011;3126;52.738;8.316;2023-01-28T17:01:31;17.98;;;9.85;;
6185;SDS011;3126;52.738;8.316;2023-01-28T17:06:32;19.08;;;10.43;;
6185;SDS011;3126;52.738;8.316;2023-01-28T17:11:34;18.95;;;10.85;;
6185;SDS011;3126;52.738;8.316;2023-01-28T17:16:35;18.02;;;9.55;;
6185;SDS011;3126;52.738;8.316;2023-01-28T17:21:36;22.25;;;11.60;;
6185;SDS011;3126;52.738;8.316;2023-01-28T17:26:37;17.80;;;9.80;;
6185;SDS011;3126;52.738;8.316;2023-01-28T17:31:38;16.25;;;9.90;;
6185;SDS011;3126;52.738;8.316;2023-01-28T17:36:39;20.23;;;12.00;;
6185;SDS011;3126;52.738;8.316;2023-01-28T17:41:40;20.63;;;11.68;;
6185;SDS011;3126;52.738;8.316;2023-01-28T17:46:41;21.83;;;12.88;;
6185;SDS011;3126;52.738;8.316;2023-01-28T17:51:42;21.23;;;10.88;;
6185;SDS011;3126;52.738;8.316;2023-01-28T17:56:43;20.52;;;11.43;;
6185;SDS011;3126;52.738;8.316;2023-01-28T18:01:44;19.08;;;11.63;;
6185;SDS011;3126;52.738;8.316;2023-01-28T18:06:46;17.83;;;10.50;;
6185;SDS011;3126;52.738;8.316;2023-01-28T18:11:48;20.48;;;10.73;;
6185;SDS011;3126;52.738;8.316;2023-01-28T18:16:49;18.80;;;10.43;;
6185;SDS011;3126;52.738;8.316;2023-01-28T18:21:50;18.52;;;10.90;;
6185;SDS011;3126;52.738;8.316;2023-01-28T18:26:51;20.70;;;10.68;;
6185;SDS011;3126;52.738;8.316;2023-01-28T18:31:54;19.00;;;10.45;;
6185;SDS011;3126;52.738;8.316;2023-01-28T18:36:56;20.40;;;11.13;;
6185;SDS011;3126;52.738;8.316;2023-01-28T18:41:58;25.40;;;13.23;;
6185;SDS011;3126;52.738;8.316;2023-01-28T18:46:59;19.75;;;11.25;;
6185;SDS011;3126;52.738;8.316;2023-01-28T18:52:00;17.10;;;9.60;;
6185;SDS011;3126;52.738;8.316;2023-01-28T18:57:01;20.45;;;10.68;;
6185;SDS011;3126;52.738;8.316;2023-01-28T19:02:02;15.55;;;8.93;;
6185;SDS011;3126;52.738;8.316;2023-01-28T19:07:03;23.60;;;11.10;;
6185;SDS011;3126;52.738;8.316;2023-01-28T19:12:04;16.08;;;10.20;;
6185;SDS011;3126;52.738;8.316;2023-01-28T19:17:05;15.43;;;9.43;;
6185;SDS011;3126;52.738;8.316;2023-01-28T19:22:06;20.38;;;10.68;;
6185;SDS011;3126;52.738;8.316;2023-01-28T19:27:07;16.13;;;9.35;;
6185;SDS011;3126;52.738;8.316;2023-01-28T19:32:08;17.40;;;9.45;;
6185;SDS011;3126;52.738;8.316;2023-01-28T19:37:09;17.17;;;9.48;;
6185;SDS011;3126;52.738;8.316;2023-01-28T19:42:10;18.70;;;10.95;;
6185;SDS011;3126;52.738;8.316;2023-01-28T19:47:11;18.60;;;10.88;;
6185;SDS011;3126;52.738;8.316;2023-01-28T19:52:12;17.70;;;9.95;;
6185;SDS011;3126;52.738;8.316;2023-01-28T19:57:13;17.13;;;9.90;;
6185;SDS011;3126;52.738;8.316;2023-01-28T20:02:14;17.30;;;10.57;;
6185;SDS011;3126;52.738;8.316;2023-01-28T20:07:15;17.30;;;10.27;;
6185;SDS011;3126;52.738;8.316;2023-01-28T20:12:16;17.15;;;11.13;;
6185;SDS011;3126;52.738;8.316;2023-01-28T20:17:17;17.15;;;10.30;;
6185;SDS011;3126;52.738;8.316;2023-01-28T20:22:19;18.83;;;9.85;;
6185;SDS011;3126;52.738;8.316;2023-01-28T20:27:20;17.98;;;10.15;;
6185;SDS011;3126;52.738;8.316;2023-01-28T20:32:21;20.15;;;11.07;;
6185;SDS011;3126;52.738;8.316;2023-01-28T20:37:22;18.17;;;10.15;;
6185;SDS011;3126;52.738;8.316;2023-01-28T20:42:23;22.67;;;11.20;;
6185;SDS011;3126;52.738;8.316;2023-01-28T20:47:24;19.35;;;10.82;;
6185;SDS011;3126;52.738;8.316;2023-01-28T20:52:25;19.85;;;10.77;;
6185;SDS011;3126;52.738;8.316;2023-01-28T20:57:26;19.65;;;10.80;;
6185;SDS011;3126;52.738;8.316;2023-01-28T21:02:27;20.02;;;10.70;;
6185;SDS011;3126;52.738;8.316;2023-01-28T21:07:28;17.98;;;10.90;;
6185;SDS011;3126;52.738;8.316;2023-01-28T21:12:29;20.60;;;11.13;;
6185;SDS011;3126;52.738;8.316;2023-01-28T21:17:31;19.58;;;12.13;;
6185;SDS011;3126;52.738;8.316;2023-01-28T21:22:31;21.80;;;11.20;;
6185;SDS011;3126;52.738;8.316;2023-01-28T21:27:33;16.40;;;9.25;;
6185;SDS011;3126;52.738;8.316;2023-01-28T21:32:34;21.23;;;12.23;;
6185;SDS011;3126;52.738;8.316;2023-01-28T21:37:35;16.08;;;9.98;;
6185;SDS011;3126;52.738;8.316;2023-01-28T21:42:37;21.15;;;11.18;;
6185;SDS011;3126;52.738;8.316;2023-01-28T21:47:39;17.35;;;10.55;;
6185;SDS011;3126;52.738;8.316;2023-01-28T21:52:40;19.40;;;10.98;;
6185;SDS011;3126;52.738;8.316;2023-01-28T21:57:41;21.40;;;10.77;;
6185;SDS011;3126;52.738;8.316;2023-01-28T22:02:42;18.98;;;11.77;;
6185;SDS011;3126;52.738;8.316;2023-01-28T22:07:43;22.00;;;11.55;;
6185;SDS011;3126;52.738;8.316;2023-01-28T22:12:43;20.00;;;10.93;;
6185;SDS011;3126;52.738;8.316;2023-01-28T22:17:44;22.65;;;12.18;;
6185;SDS011;3126;52.738;8.316;2023-01-28T22:22:45;20.88;;;11.02;;
6185;SDS011;3126;52.738;8.316;2023-01-28T22:27:46;21.63;;;12.07;;
6185;SDS011;3126;52.738;8.316;2023-01-28T22:32:47;14.52;;;8.18;;
6185;SDS011;3126;52.738;8.316;2023-01-28T22:37:48;23.33;;;11.77;;
6185;SDS011;3126;52.738;8.316;2023-01-28T22:42:49;16.90;;;11.15;;
6185;SDS011;3126;52.738;8.316;2023-01-28T22:47:51;18.27;;;10.00;;
6185;SDS011;3126;52.738;8.316;2023-01-28T22:52:52;20.77;;;11.07;;
6185;SDS011;3126;52.738;8.316;2023-01-28T22:57:53;19.48;;;11.20;;
6185;SDS011;3126;52.738;8.316;2023-01-28T23:02:54;21.60;;;11.10;;
6185;SDS011;3126;52.738;8.316;2023-01-28T23:07:55;20.30;;;11.35;;
6185;SDS011;3126;52.738;8.316;2023-01-28T23:13:09;17.55;;;8.85;;
6185;SDS011;3126;52.738;8.316;2023-01-28T23:18:12;21.60;;;11.93;;
6185;SDS011;3126;52.738;8.316;2023-01-28T23:28:53;19.52;;;10.68;;
6185;SDS011;3126;52.738;8.316;2023-01-28T23:33:54;22.23;;;12.10;;
6185;SDS011;3126;52.738;8.316;2023-01-28T23:38:55;19.92;;;11.20;;
6185;SDS011;3126;52.738;8.316;2023-01-28T23:43:56;20.38;;;10.93;;
6185;SDS011;3126;52.738;8.316;2023-01-28T23:48:58;21.80;;;11.20;;
6185;SDS011;3126;52.738;8.316;2023-01-28T23:53:59;19.98;;;11.32;;
6185;SDS011;3126;52.738;8.316;2023-01-28T23:59:00;19.90;;;11.35;;
